createdAt,value
2017-07-25T00:00:06.397Z,1003.74
2017-07-25T00:00:16.395Z,1003.76
2017-07-25T00:00:26.054Z,1003.75
2017-07-25T00:00:36.385Z,1003.75
2017-07-25T00:00:46.376Z,1003.78
2017-07-25T00:00:56.374Z,1003.78
2017-07-25T00:01:06.371Z,1003.75
2017-07-25T00:01:16.025Z,1003.77
2017-07-25T00:01:26.357Z,1003.79
2017-07-25T00:01:36.351Z,1003.77
2017-07-25T00:01:46.348Z,1003.79
2017-07-25T00:01:56.344Z,1003.79
2017-07-25T00:02:06.340Z,1003.75
2017-07-25T00:02:15.996Z,1003.74
2017-07-25T00:02:26.326Z,1003.76
2017-07-25T00:02:36.319Z,1003.75
2017-07-25T00:02:46.317Z,1003.77
2017-07-25T00:02:56.308Z,1003.78
2017-07-25T00:03:06.304Z,1003.74
2017-07-25T00:03:16.296Z,1003.81
2017-07-25T00:03:25.961Z,1003.78
2017-07-25T00:03:35.955Z,1003.8
2017-07-25T00:03:46.285Z,1003.79
2017-07-25T00:03:56.282Z,1003.81
2017-07-25T00:04:05.604Z,1003.78
2017-07-25T00:04:16.267Z,1003.78
2017-07-25T00:04:25.925Z,1003.77
2017-07-25T00:04:36.258Z,1003.78
2017-07-25T00:04:46.257Z,1003.77
2017-07-25T00:04:56.246Z,1003.81
2017-07-25T00:05:06.245Z,1003.79
2017-07-25T00:05:16.239Z,1003.8
2017-07-25T00:05:26.234Z,1003.8
2017-07-25T00:05:36.230Z,1003.81
2017-07-25T00:05:46.226Z,1003.82
2017-07-25T00:05:55.881Z,1003.79
2017-07-25T00:06:05.875Z,1003.79
2017-07-25T00:06:16.205Z,1003.77
2017-07-25T00:06:26.213Z,1003.77
2017-07-25T00:06:36.193Z,1003.8
2017-07-25T00:06:46.193Z,1003.76
2017-07-25T00:06:56.188Z,1003.77
2017-07-25T00:07:06.181Z,1003.77
2017-07-25T00:07:15.839Z,1003.75
2017-07-25T00:07:26.167Z,1003.77
2017-07-25T00:07:36.165Z,1003.81
2017-07-25T00:07:46.160Z,1003.79
2017-07-25T00:07:56.152Z,1003.78
2017-07-25T00:08:06.169Z,1003.79
2017-07-25T00:08:16.141Z,1003.77
2017-07-25T00:08:26.136Z,1003.8
2017-07-25T00:08:35.798Z,1003.82
2017-07-25T00:08:46.125Z,1003.72
2017-07-25T00:08:56.122Z,1003.85
2017-07-25T00:09:06.123Z,1003.77
2017-07-25T00:09:15.780Z,1003.8
2017-07-25T00:09:25.772Z,1003.77
2017-07-25T00:09:36.104Z,1003.86
2017-07-25T00:09:46.094Z,1003.83
2017-07-25T00:09:56.092Z,1003.85
2017-07-25T00:10:05.754Z,1003.83
2017-07-25T00:10:16.084Z,1003.83
2017-07-25T00:10:25.740Z,1003.83
2017-07-25T00:10:36.069Z,1003.84
2017-07-25T00:10:46.065Z,1003.81
2017-07-25T00:10:56.062Z,1003.84
2017-07-25T00:11:06.057Z,1003.8
2017-07-25T00:11:16.047Z,1003.82
2017-07-25T00:11:26.045Z,1003.82
2017-07-25T00:11:36.037Z,1003.77
2017-07-25T00:11:46.035Z,1003.76
2017-07-25T00:11:56.026Z,1003.81
2017-07-25T00:12:06.023Z,1003.83
2017-07-25T00:12:16.020Z,1003.77
2017-07-25T00:12:26.010Z,1003.82
2017-07-25T00:12:36.009Z,1003.75
2017-07-25T00:12:46.006Z,1003.79
2017-07-25T00:12:55.999Z,1003.74
2017-07-25T00:13:05.994Z,1003.79
2017-07-25T00:13:15.984Z,1003.76
2017-07-25T00:13:25.983Z,1003.74
2017-07-25T00:13:35.980Z,1003.73
2017-07-25T00:13:45.973Z,1003.78
2017-07-25T00:13:55.969Z,1003.78
2017-07-25T00:14:05.962Z,1003.78
2017-07-25T00:14:15.957Z,1003.74
2017-07-25T00:14:25.951Z,1003.78
2017-07-25T00:14:35.946Z,1003.79
2017-07-25T00:14:45.603Z,1003.78
2017-07-25T00:14:55.943Z,1003.76
2017-07-25T00:15:05.596Z,1003.73
2017-07-25T00:15:15.926Z,1003.79
2017-07-25T00:15:25.921Z,1003.79
2017-07-25T00:15:35.914Z,1003.81
2017-07-25T00:15:45.904Z,1003.78
2017-07-25T00:15:55.905Z,1003.79
2017-07-25T00:16:05.562Z,1003.76
2017-07-25T00:16:15.892Z,1003.81
2017-07-25T00:16:25.890Z,1003.84
2017-07-25T00:16:35.551Z,1003.87
2017-07-25T00:16:45.875Z,1003.83
2017-07-25T00:16:55.871Z,1003.81
2017-07-25T00:17:05.530Z,1003.77
2017-07-25T00:17:15.862Z,1003.83
2017-07-25T00:17:25.188Z,1003.77
2017-07-25T00:17:35.850Z,1003.79
2017-07-25T00:17:45.512Z,1003.76
2017-07-25T00:17:55.852Z,1003.81
2017-07-25T00:18:05.501Z,1003.8
2017-07-25T00:18:15.836Z,1003.8
2017-07-25T00:18:25.492Z,1003.78
2017-07-25T00:18:35.820Z,1003.79
2017-07-25T00:18:45.822Z,1003.8
2017-07-25T00:18:55.473Z,1003.78
2017-07-25T00:19:05.802Z,1003.79
2017-07-25T00:19:15.803Z,1003.8
2017-07-25T00:19:25.797Z,1003.82
2017-07-25T00:19:35.791Z,1003.75
2017-07-25T00:19:45.784Z,1003.75
2017-07-25T00:19:55.779Z,1003.77
2017-07-25T00:20:05.442Z,1003.77
2017-07-25T00:20:15.764Z,1003.77
2017-07-25T00:20:25.760Z,1003.82
2017-07-25T00:20:35.423Z,1003.79
2017-07-25T00:20:45.755Z,1003.75
2017-07-25T00:20:55.747Z,1003.78
2017-07-25T00:21:05.744Z,1003.74
2017-07-25T00:21:15.397Z,1003.78
2017-07-25T00:21:25.733Z,1003.77
2017-07-25T00:21:35.725Z,1003.77
2017-07-25T00:21:45.388Z,1003.76
2017-07-25T00:21:55.382Z,1003.82
2017-07-25T00:22:05.712Z,1003.76
2017-07-25T00:22:15.705Z,1003.76
2017-07-25T00:22:25.702Z,1003.72
2017-07-25T00:22:35.717Z,1003.77
2017-07-25T00:22:45.691Z,1003.73
2017-07-25T00:22:55.349Z,1003.77
2017-07-25T00:23:05.684Z,1003.73
2017-07-25T00:23:15.672Z,1003.7
2017-07-25T00:23:25.691Z,1003.69
2017-07-25T00:23:35.663Z,1003.73
2017-07-25T00:23:45.661Z,1003.73
2017-07-25T00:23:55.656Z,1003.71
2017-07-25T00:24:05.645Z,1003.71
2017-07-25T00:24:15.642Z,1003.73
2017-07-25T00:24:24.968Z,1003.68
2017-07-25T00:24:35.632Z,1003.67
2017-07-25T00:24:45.292Z,1003.68
2017-07-25T00:24:55.622Z,1003.68
2017-07-25T00:25:05.621Z,1003.72
2017-07-25T00:25:15.614Z,1003.69
2017-07-25T00:25:25.607Z,1003.71
2017-07-25T00:25:35.597Z,1003.73
2017-07-25T00:25:45.596Z,1003.73
2017-07-25T00:25:55.587Z,1003.77
2017-07-25T00:26:05.252Z,1003.69
2017-07-25T00:26:15.583Z,1003.66
2017-07-25T00:26:25.583Z,1003.76
2017-07-25T00:26:35.571Z,1003.61
2017-07-25T00:26:45.231Z,1003.66
2017-07-25T00:26:54.887Z,1003.7
2017-07-25T00:27:05.557Z,1003.68
2017-07-25T00:27:15.552Z,1003.75
2017-07-25T00:27:25.542Z,1003.67
2017-07-25T00:27:35.538Z,1003.68
2017-07-25T00:27:45.533Z,1003.69
2017-07-25T00:27:54.857Z,1003.69
2017-07-25T00:28:05.190Z,1003.72
2017-07-25T00:28:15.184Z,1003.65
2017-07-25T00:28:25.511Z,1003.69
2017-07-25T00:28:35.174Z,1003.71
2017-07-25T00:28:45.501Z,1003.69
2017-07-25T00:28:55.159Z,1003.7
2017-07-25T00:29:05.491Z,1003.73
2017-07-25T00:29:15.488Z,1003.72
2017-07-25T00:29:25.483Z,1003.66
2017-07-25T00:29:35.142Z,1003.7
2017-07-25T00:29:45.467Z,1003.69
2017-07-25T00:29:55.465Z,1003.66
2017-07-25T00:30:05.457Z,1003.66
2017-07-25T00:30:15.458Z,1003.66
2017-07-25T00:30:25.448Z,1003.68
2017-07-25T00:30:35.441Z,1003.65
2017-07-25T00:30:45.444Z,1003.63
2017-07-25T00:30:55.103Z,1003.67
2017-07-25T00:31:05.427Z,1003.69
2017-07-25T00:31:15.424Z,1003.63
2017-07-25T00:31:25.085Z,1003.64
2017-07-25T00:31:35.410Z,1003.57
2017-07-25T00:31:45.407Z,1003.67
2017-07-25T00:31:55.064Z,1003.6
2017-07-25T00:32:05.396Z,1003.59
2017-07-25T00:32:15.400Z,1003.62
2017-07-25T00:32:25.389Z,1003.64
2017-07-25T00:32:35.384Z,1003.61
2017-07-25T00:32:45.375Z,1003.58
2017-07-25T00:32:55.371Z,1003.65
2017-07-25T00:33:05.370Z,1003.63
2017-07-25T00:33:15.361Z,1003.61
2017-07-25T00:33:25.354Z,1003.57
2017-07-25T00:33:35.349Z,1003.62
2017-07-25T00:33:45.346Z,1003.59
2017-07-25T00:33:55.345Z,1003.58
2017-07-25T00:34:05.333Z,1003.61
2017-07-25T00:34:15.332Z,1003.6
2017-07-25T00:34:25.326Z,1003.59
2017-07-25T00:34:35.319Z,1003.6
2017-07-25T00:34:45.317Z,1003.59
2017-07-25T00:34:55.305Z,1003.58
2017-07-25T00:35:04.971Z,1003.6
2017-07-25T00:35:15.299Z,1003.62
2017-07-25T00:35:25.296Z,1003.61
2017-07-25T00:35:35.287Z,1003.64
2017-07-25T00:35:44.951Z,1003.58
2017-07-25T00:35:55.276Z,1003.57
2017-07-25T00:36:05.272Z,1003.57
2017-07-25T00:36:15.268Z,1003.53
2017-07-25T00:36:25.269Z,1003.6
2017-07-25T00:36:35.260Z,1003.62
2017-07-25T00:36:45.254Z,1003.61
2017-07-25T00:36:54.909Z,1003.61
2017-07-25T00:37:05.242Z,1003.58
2017-07-25T00:37:14.904Z,1003.58
2017-07-25T00:37:24.897Z,1003.59
2017-07-25T00:37:35.228Z,1003.57
2017-07-25T00:37:45.220Z,1003.55
2017-07-25T00:37:54.884Z,1003.57
2017-07-25T00:38:04.880Z,1003.59
2017-07-25T00:38:14.871Z,1003.62
2017-07-25T00:38:25.196Z,1003.6
2017-07-25T00:38:35.191Z,1003.59
2017-07-25T00:38:45.191Z,1003.59
2017-07-25T00:38:55.187Z,1003.54
2017-07-25T00:39:05.178Z,1003.59
2017-07-25T00:39:15.170Z,1003.52
2017-07-25T00:39:25.166Z,1003.58
2017-07-25T00:39:35.164Z,1003.56
2017-07-25T00:39:45.161Z,1003.56
2017-07-25T00:39:55.152Z,1003.6
2017-07-25T00:40:05.149Z,1003.59
2017-07-25T00:40:15.139Z,1003.58
2017-07-25T00:40:25.142Z,1003.58
2017-07-25T00:40:35.150Z,1003.57
2017-07-25T00:40:45.125Z,1003.57
2017-07-25T00:40:55.125Z,1003.53
2017-07-25T00:41:05.128Z,1003.59
2017-07-25T00:41:15.117Z,1003.56
2017-07-25T00:41:25.109Z,1003.57
2017-07-25T00:41:35.096Z,1003.53
2017-07-25T00:41:45.095Z,1003.58
2017-07-25T00:41:55.093Z,1003.61
2017-07-25T00:42:04.751Z,1003.59
2017-07-25T00:42:15.078Z,1003.55
2017-07-25T00:42:25.076Z,1003.57
2017-07-25T00:42:35.073Z,1003.61
2017-07-25T00:42:45.075Z,1003.57
2017-07-25T00:42:55.059Z,1003.58
2017-07-25T00:43:05.053Z,1003.53
2017-07-25T00:43:15.050Z,1003.59
2017-07-25T00:43:25.044Z,1003.58
2017-07-25T00:43:34.707Z,1003.53
2017-07-25T00:43:45.033Z,1003.55
2017-07-25T00:43:55.031Z,1003.54
2017-07-25T00:44:05.024Z,1003.58
2017-07-25T00:44:15.018Z,1003.56
2017-07-25T00:44:25.009Z,1003.49
2017-07-25T00:44:35.005Z,1003.58
2017-07-25T00:44:45.004Z,1003.56
2017-07-25T00:44:55.004Z,1003.56
2017-07-25T00:45:04.993Z,1003.51
2017-07-25T00:45:14.988Z,1003.54
2017-07-25T00:45:24.979Z,1003.54
2017-07-25T00:45:34.978Z,1003.53
2017-07-25T00:45:44.968Z,1003.51
2017-07-25T00:45:54.960Z,1003.58
2017-07-25T00:46:04.962Z,1003.55
2017-07-25T00:46:14.957Z,1003.61
2017-07-25T00:46:24.948Z,1003.53
2017-07-25T00:46:34.947Z,1003.55
2017-07-25T00:46:44.938Z,1003.53
2017-07-25T00:46:54.929Z,1003.54
2017-07-25T00:47:04.595Z,1003.54
2017-07-25T00:47:14.925Z,1003.51
2017-07-25T00:47:24.915Z,1003.55
2017-07-25T00:47:34.577Z,1003.54
2017-07-25T00:47:44.909Z,1003.51
2017-07-25T00:47:54.905Z,1003.48
2017-07-25T00:48:04.897Z,1003.51
2017-07-25T00:48:14.891Z,1003.51
2017-07-25T00:48:24.885Z,1003.5
2017-07-25T00:48:34.886Z,1003.51
2017-07-25T00:48:44.874Z,1003.53
2017-07-25T00:48:54.868Z,1003.53
2017-07-25T00:49:04.864Z,1003.56
2017-07-25T00:49:14.859Z,1003.5
2017-07-25T00:49:24.858Z,1003.5
2017-07-25T00:49:34.516Z,1003.53
2017-07-25T00:49:44.846Z,1003.53
2017-07-25T00:49:54.840Z,1003.53
2017-07-25T00:50:04.836Z,1003.57
2017-07-25T00:50:14.833Z,1003.51
2017-07-25T00:50:24.826Z,1003.52
2017-07-25T00:50:34.821Z,1003.54
2017-07-25T00:50:44.819Z,1003.48
2017-07-25T00:50:54.809Z,1003.48
2017-07-25T00:51:04.806Z,1003.5
2017-07-25T00:51:14.126Z,1003.49
2017-07-25T00:51:24.792Z,1003.52
2017-07-25T00:51:34.790Z,1003.48
2017-07-25T00:51:44.783Z,1003.51
2017-07-25T00:51:54.780Z,1003.52
2017-07-25T00:52:04.436Z,1003.47
2017-07-25T00:52:14.764Z,1003.48
2017-07-25T00:52:24.760Z,1003.44
2017-07-25T00:52:34.755Z,1003.5
2017-07-25T00:52:44.752Z,1003.48
2017-07-25T00:52:54.744Z,1003.48
2017-07-25T00:53:04.742Z,1003.46
2017-07-25T00:53:14.737Z,1003.48
2017-07-25T00:53:24.731Z,1003.52
2017-07-25T00:53:34.724Z,1003.46
2017-07-25T00:53:44.718Z,1003.46
2017-07-25T00:53:54.718Z,1003.49
2017-07-25T00:54:04.716Z,1003.49
2017-07-25T00:54:14.707Z,1003.48
2017-07-25T00:54:24.365Z,1003.44
2017-07-25T00:54:34.692Z,1003.46
2017-07-25T00:54:44.687Z,1003.48
2017-07-25T00:54:54.358Z,1003.48
2017-07-25T00:55:04.344Z,1003.42
2017-07-25T00:55:14.674Z,1003.48
2017-07-25T00:55:24.668Z,1003.46
2017-07-25T00:55:34.665Z,1003.43
2017-07-25T00:55:44.654Z,1003.43
2017-07-25T00:55:54.652Z,1003.48
2017-07-25T00:56:04.646Z,1003.49
2017-07-25T00:56:14.647Z,1003.5
2017-07-25T00:56:24.640Z,1003.45
2017-07-25T00:56:34.633Z,1003.47
2017-07-25T00:56:44.629Z,1003.45
2017-07-25T00:56:54.622Z,1003.49
2017-07-25T00:57:04.615Z,1003.43
2017-07-25T00:57:14.611Z,1003.44
2017-07-25T00:57:24.611Z,1003.43
2017-07-25T00:57:34.597Z,1003.46
2017-07-25T00:57:44.598Z,1003.44
2017-07-25T00:57:54.588Z,1003.45
2017-07-25T00:58:04.583Z,1003.44
2017-07-25T00:58:14.579Z,1003.45
2017-07-25T00:58:24.238Z,1003.47
2017-07-25T00:58:34.568Z,1003.47
2017-07-25T00:58:44.564Z,1003.5
2017-07-25T00:58:54.558Z,1003.43
2017-07-25T00:59:04.220Z,1003.47
2017-07-25T00:59:14.549Z,1003.44
2017-07-25T00:59:24.542Z,1003.43
2017-07-25T00:59:34.538Z,1003.45
2017-07-25T00:59:44.197Z,1003.44
2017-07-25T00:59:54.526Z,1003.4
2017-07-25T01:00:04.522Z,1003.47
2017-07-25T01:00:14.521Z,1003.44
2017-07-25T01:00:24.512Z,1003.43
2017-07-25T01:00:34.504Z,1003.44
2017-07-25T01:00:44.503Z,1003.46
2017-07-25T01:00:54.494Z,1003.46
2017-07-25T01:01:04.173Z,1003.47
2017-07-25T01:01:14.486Z,1003.44
2017-07-25T01:01:24.485Z,1003.44
2017-07-25T01:01:34.474Z,1003.42
2017-07-25T01:01:44.468Z,1003.44
2017-07-25T01:01:54.464Z,1003.42
2017-07-25T01:02:04.465Z,1003.4
2017-07-25T01:02:14.454Z,1003.4
2017-07-25T01:02:24.112Z,1003.42
2017-07-25T01:02:34.441Z,1003.4
2017-07-25T01:02:44.436Z,1003.41
2017-07-25T01:02:54.432Z,1003.39
2017-07-25T01:03:04.427Z,1003.4
2017-07-25T01:03:14.422Z,1003.41
2017-07-25T01:03:24.420Z,1003.43
2017-07-25T01:03:34.410Z,1003.43
2017-07-25T01:03:44.407Z,1003.39
2017-07-25T01:03:54.396Z,1003.39
2017-07-25T01:04:04.397Z,1003.41
2017-07-25T01:04:14.392Z,1003.4
2017-07-25T01:04:24.053Z,1003.38
2017-07-25T01:04:34.387Z,1003.44
2017-07-25T01:04:44.375Z,1003.39
2017-07-25T01:04:54.371Z,1003.38
2017-07-25T01:05:04.027Z,1003.4
2017-07-25T01:05:14.359Z,1003.42
2017-07-25T01:05:24.019Z,1003.37
2017-07-25T01:05:34.349Z,1003.38
2017-07-25T01:05:44.341Z,1003.39
2017-07-25T01:05:54.340Z,1003.34
2017-07-25T01:06:03.996Z,1003.34
2017-07-25T01:06:14.327Z,1003.37
2017-07-25T01:06:24.322Z,1003.35
2017-07-25T01:06:34.318Z,1003.34
2017-07-25T01:06:44.312Z,1003.36
2017-07-25T01:06:54.309Z,1003.36
2017-07-25T01:07:03.967Z,1003.3
2017-07-25T01:07:14.294Z,1003.33
2017-07-25T01:07:24.290Z,1003.41
2017-07-25T01:07:34.287Z,1003.39
2017-07-25T01:07:44.287Z,1003.33
2017-07-25T01:07:53.605Z,1003.33
2017-07-25T01:08:04.271Z,1003.37
2017-07-25T01:08:14.266Z,1003.36
2017-07-25T01:08:24.263Z,1003.34
2017-07-25T01:08:33.589Z,1003.37
2017-07-25T01:08:44.251Z,1003.36
2017-07-25T01:08:54.249Z,1003.34
2017-07-25T01:09:04.238Z,1003.32
2017-07-25T01:09:13.901Z,1003.3
2017-07-25T01:09:24.231Z,1003.36
2017-07-25T01:09:34.221Z,1003.35
2017-07-25T01:09:44.216Z,1003.36
2017-07-25T01:09:54.212Z,1003.35
2017-07-25T01:10:03.875Z,1003.34
2017-07-25T01:10:13.537Z,1003.35
2017-07-25T01:10:24.205Z,1003.33
2017-07-25T01:10:34.191Z,1003.36
2017-07-25T01:10:44.191Z,1003.38
2017-07-25T01:10:54.179Z,1003.36
2017-07-25T01:11:04.181Z,1003.36
2017-07-25T01:11:14.169Z,1003.34
2017-07-25T01:11:24.162Z,1003.35
2017-07-25T01:11:34.163Z,1003.4
2017-07-25T01:11:44.155Z,1003.37
2017-07-25T01:11:54.152Z,1003.35
2017-07-25T01:12:04.159Z,1003.32
2017-07-25T01:12:14.141Z,1003.35
2017-07-25T01:12:24.137Z,1003.36
2017-07-25T01:12:34.132Z,1003.34
2017-07-25T01:12:44.122Z,1003.38
2017-07-25T01:12:53.782Z,1003.31
2017-07-25T01:13:04.119Z,1003.34
2017-07-25T01:13:14.110Z,1003.34
2017-07-25T01:13:24.103Z,1003.33
2017-07-25T01:13:34.102Z,1003.36
2017-07-25T01:13:44.100Z,1003.32
2017-07-25T01:13:54.093Z,1003.32
2017-07-25T01:14:04.081Z,1003.33
2017-07-25T01:14:14.080Z,1003.35
2017-07-25T01:14:24.077Z,1003.33
2017-07-25T01:14:33.729Z,1003.35
2017-07-25T01:14:44.059Z,1003.32
2017-07-25T01:14:54.060Z,1003.32
2017-07-25T01:15:04.055Z,1003.3
2017-07-25T01:15:14.048Z,1003.31
2017-07-25T01:15:24.041Z,1003.3
2017-07-25T01:15:33.700Z,1003.3
2017-07-25T01:15:44.028Z,1003.29
2017-07-25T01:15:54.026Z,1003.33
2017-07-25T01:16:04.021Z,1003.31
2017-07-25T01:16:14.012Z,1003.3
2017-07-25T01:16:23.342Z,1003.32
2017-07-25T01:16:33.675Z,1003.32
2017-07-25T01:16:44.001Z,1003.25
2017-07-25T01:16:53.997Z,1003.27
2017-07-25T01:17:03.655Z,1003.27
2017-07-25T01:17:13.984Z,1003.31
2017-07-25T01:17:23.978Z,1003.35
2017-07-25T01:17:33.975Z,1003.31
2017-07-25T01:17:43.969Z,1003.31
2017-07-25T01:17:53.963Z,1003.31
2017-07-25T01:18:03.956Z,1003.32
2017-07-25T01:18:13.951Z,1003.31
2017-07-25T01:18:23.953Z,1003.31
2017-07-25T01:18:33.938Z,1003.33
2017-07-25T01:18:43.941Z,1003.38
2017-07-25T01:18:53.931Z,1003.32
2017-07-25T01:19:03.924Z,1003.32
2017-07-25T01:19:13.920Z,1003.3
2017-07-25T01:19:23.919Z,1003.29
2017-07-25T01:19:33.909Z,1003.28
2017-07-25T01:19:43.907Z,1003.27
2017-07-25T01:19:53.901Z,1003.27
2017-07-25T01:20:03.893Z,1003.28
2017-07-25T01:20:13.889Z,1003.27
2017-07-25T01:20:23.546Z,1003.26
2017-07-25T01:20:33.880Z,1003.25
2017-07-25T01:20:43.871Z,1003.32
2017-07-25T01:20:53.867Z,1003.25
2017-07-25T01:21:03.529Z,1003.27
2017-07-25T01:21:13.861Z,1003.26
2017-07-25T01:21:23.850Z,1003.26
2017-07-25T01:21:33.851Z,1003.22
2017-07-25T01:21:43.511Z,1003.26
2017-07-25T01:21:53.839Z,1003.27
2017-07-25T01:22:03.832Z,1003.26
2017-07-25T01:22:13.829Z,1003.25
2017-07-25T01:22:23.824Z,1003.26
2017-07-25T01:22:33.821Z,1003.28
2017-07-25T01:22:43.813Z,1003.24
2017-07-25T01:22:53.472Z,1003.3
2017-07-25T01:23:03.805Z,1003.25
2017-07-25T01:23:13.794Z,1003.29
2017-07-25T01:23:23.789Z,1003.28
2017-07-25T01:23:33.785Z,1003.25
2017-07-25T01:23:43.782Z,1003.28
2017-07-25T01:23:53.771Z,1003.32
2017-07-25T01:24:03.780Z,1003.26
2017-07-25T01:24:13.764Z,1003.28
2017-07-25T01:24:23.760Z,1003.29
2017-07-25T01:24:33.754Z,1003.27
2017-07-25T01:24:43.750Z,1003.24
2017-07-25T01:24:53.072Z,1003.25
2017-07-25T01:25:03.740Z,1003.23
2017-07-25T01:25:13.733Z,1003.29
2017-07-25T01:25:23.733Z,1003.26
2017-07-25T01:25:33.726Z,1003.22
2017-07-25T01:25:43.718Z,1003.25
2017-07-25T01:25:53.712Z,1003.22
2017-07-25T01:26:03.705Z,1003.26
2017-07-25T01:26:13.706Z,1003.28
2017-07-25T01:26:23.696Z,1003.21
2017-07-25T01:26:33.691Z,1003.22
2017-07-25T01:26:44.042Z,1003.26
2017-07-25T01:26:53.679Z,1003.23
2017-07-25T01:27:03.677Z,1003.21
2017-07-25T01:27:13.671Z,1003.24
2017-07-25T01:27:23.669Z,1003.21
2017-07-25T01:27:33.660Z,1003.24
2017-07-25T01:27:43.321Z,1003.2
2017-07-25T01:27:53.649Z,1003.17
2017-07-25T01:28:03.648Z,1003.25
2017-07-25T01:28:13.642Z,1003.21
2017-07-25T01:28:23.637Z,1003.23
2017-07-25T01:28:33.628Z,1003.22
2017-07-25T01:28:43.286Z,1003.21
2017-07-25T01:28:53.625Z,1003.22
2017-07-25T01:29:03.278Z,1003.22
2017-07-25T01:29:13.611Z,1003.21
2017-07-25T01:29:23.605Z,1003.19
2017-07-25T01:29:33.595Z,1003.24
2017-07-25T01:29:43.594Z,1003.19
2017-07-25T01:29:53.585Z,1003.19
2017-07-25T01:30:03.252Z,1003.21
2017-07-25T01:30:13.574Z,1003.16
2017-07-25T01:30:23.571Z,1003.22
2017-07-25T01:30:33.566Z,1003.21
2017-07-25T01:30:43.224Z,1003.24
2017-07-25T01:30:53.554Z,1003.18
2017-07-25T01:31:03.218Z,1003.17
2017-07-25T01:31:13.208Z,1003.2
2017-07-25T01:31:23.541Z,1003.21
2017-07-25T01:31:33.535Z,1003.21
2017-07-25T01:31:43.528Z,1003.23
2017-07-25T01:31:53.524Z,1003.23
2017-07-25T01:32:03.521Z,1003.21
2017-07-25T01:32:13.515Z,1003.19
2017-07-25T01:32:23.526Z,1003.16
2017-07-25T01:32:33.504Z,1003.16
2017-07-25T01:32:43.498Z,1003.2
2017-07-25T01:32:53.504Z,1003.2
2017-07-25T01:33:03.488Z,1003.22
2017-07-25T01:33:13.481Z,1003.2
2017-07-25T01:33:23.477Z,1003.18
2017-07-25T01:33:33.472Z,1003.17
2017-07-25T01:33:43.469Z,1003.18
2017-07-25T01:33:53.126Z,1003.17
2017-07-25T01:34:03.456Z,1003.16
2017-07-25T01:34:13.451Z,1003.22
2017-07-25T01:34:23.447Z,1003.12
2017-07-25T01:34:33.444Z,1003.18
2017-07-25T01:34:43.440Z,1003.15
2017-07-25T01:34:53.431Z,1003.16
2017-07-25T01:35:03.094Z,1003.14
2017-07-25T01:35:13.420Z,1003.16
2017-07-25T01:35:23.415Z,1003.17
2017-07-25T01:35:33.410Z,1003.17
2017-07-25T01:35:43.072Z,1003.21
2017-07-25T01:35:53.395Z,1003.21
2017-07-25T01:36:03.397Z,1003.19
2017-07-25T01:36:13.387Z,1003.2
2017-07-25T01:36:23.052Z,1003.16
2017-07-25T01:36:33.383Z,1003.16
2017-07-25T01:36:43.372Z,1003.22
2017-07-25T01:36:53.365Z,1003.19
2017-07-25T01:37:03.365Z,1003.15
2017-07-25T01:37:13.364Z,1003.2
2017-07-25T01:37:23.351Z,1003.21
2017-07-25T01:37:33.350Z,1003.18
2017-07-25T01:37:43.346Z,1003.21
2017-07-25T01:37:53.341Z,1003.22
2017-07-25T01:38:03.334Z,1003.23
2017-07-25T01:38:13.327Z,1003.19
2017-07-25T01:38:23.319Z,1003.17
2017-07-25T01:38:33.320Z,1003.21
2017-07-25T01:38:42.976Z,1003.18
2017-07-25T01:38:52.991Z,1003.19
2017-07-25T01:39:03.301Z,1003.23
2017-07-25T01:39:12.962Z,1003.25
2017-07-25T01:39:23.291Z,1003.23
2017-07-25T01:39:33.282Z,1003.23
2017-07-25T01:39:43.281Z,1003.18
2017-07-25T01:39:52.940Z,1003.18
2017-07-25T01:40:03.272Z,1003.22
2017-07-25T01:40:13.264Z,1003.2
2017-07-25T01:40:23.259Z,1003.21
2017-07-25T01:40:33.253Z,1003.19
2017-07-25T01:40:43.247Z,1003.18
2017-07-25T01:40:53.242Z,1003.25
2017-07-25T01:41:03.237Z,1003.26
2017-07-25T01:41:13.234Z,1003.27
2017-07-25T01:41:23.226Z,1003.22
2017-07-25T01:41:33.222Z,1003.24
2017-07-25T01:41:43.225Z,1003.26
2017-07-25T01:41:52.881Z,1003.21
2017-07-25T01:42:03.208Z,1003.25
2017-07-25T01:42:13.201Z,1003.24
2017-07-25T01:42:23.199Z,1003.23
2017-07-25T01:42:33.191Z,1003.25
2017-07-25T01:42:43.182Z,1003.25
2017-07-25T01:42:52.844Z,1003.26
2017-07-25T01:43:03.174Z,1003.26
2017-07-25T01:43:12.836Z,1003.24
2017-07-25T01:43:23.161Z,1003.2
2017-07-25T01:43:33.160Z,1003.24
2017-07-25T01:43:43.153Z,1003.24
2017-07-25T01:43:53.150Z,1003.26
2017-07-25T01:44:03.147Z,1003.25
2017-07-25T01:44:13.136Z,1003.27
2017-07-25T01:44:23.135Z,1003.22
2017-07-25T01:44:33.130Z,1003.2
2017-07-25T01:44:43.123Z,1003.21
2017-07-25T01:44:52.780Z,1003.23
2017-07-25T01:45:03.115Z,1003.2
2017-07-25T01:45:13.111Z,1003.23
2017-07-25T01:45:23.103Z,1003.22
2017-07-25T01:45:33.096Z,1003.21
2017-07-25T01:45:43.092Z,1003.23
2017-07-25T01:45:53.086Z,1003.19
2017-07-25T01:46:03.083Z,1003.18
2017-07-25T01:46:13.078Z,1003.23
2017-07-25T01:46:23.072Z,1003.24
2017-07-25T01:46:33.072Z,1003.24
2017-07-25T01:46:43.060Z,1003.18
2017-07-25T01:46:53.054Z,1003.24
2017-07-25T01:47:02.716Z,1003.21
2017-07-25T01:47:13.046Z,1003.2
2017-07-25T01:47:22.703Z,1003.2
2017-07-25T01:47:33.032Z,1003.15
2017-07-25T01:47:43.027Z,1003.17
2017-07-25T01:47:53.027Z,1003.16
2017-07-25T01:48:03.018Z,1003.16
2017-07-25T01:48:13.013Z,1003.15
2017-07-25T01:48:23.011Z,1003.15
2017-07-25T01:48:32.999Z,1003.14
2017-07-25T01:48:42.997Z,1003.17
2017-07-25T01:48:52.990Z,1003.19
2017-07-25T01:49:02.314Z,1003.17
2017-07-25T01:49:12.983Z,1003.19
2017-07-25T01:49:22.975Z,1003.15
2017-07-25T01:49:32.973Z,1003.16
2017-07-25T01:49:42.971Z,1003.11
2017-07-25T01:49:52.961Z,1003.12
2017-07-25T01:50:02.956Z,1003.16
2017-07-25T01:50:12.616Z,1003.15
2017-07-25T01:50:22.613Z,1003.11
2017-07-25T01:50:32.938Z,1003.11
2017-07-25T01:50:42.936Z,1003.11
2017-07-25T01:50:52.925Z,1003.1
2017-07-25T01:51:02.928Z,1003.1
2017-07-25T01:51:12.921Z,1003.1
2017-07-25T01:51:22.917Z,1003.12
2017-07-25T01:51:32.576Z,1003.07
2017-07-25T01:51:42.900Z,1003.11
2017-07-25T01:51:52.906Z,1003.09
2017-07-25T01:52:02.556Z,1003.12
2017-07-25T01:52:12.888Z,1003.12
2017-07-25T01:52:22.880Z,1003.11
2017-07-25T01:52:32.877Z,1003.14
2017-07-25T01:52:42.870Z,1003.08
2017-07-25T01:52:52.868Z,1003.12
2017-07-25T01:53:02.526Z,1003.15
2017-07-25T01:53:12.855Z,1003.14
2017-07-25T01:53:22.853Z,1003.19
2017-07-25T01:53:32.844Z,1003.14
2017-07-25T01:53:42.509Z,1003.12
2017-07-25T01:53:52.835Z,1003.15
2017-07-25T01:54:02.828Z,1003.17
2017-07-25T01:54:12.827Z,1003.13
2017-07-25T01:54:22.822Z,1003.14
2017-07-25T01:54:32.817Z,1003.13
2017-07-25T01:54:42.808Z,1003.07
2017-07-25T01:54:52.805Z,1003.14
2017-07-25T01:55:02.796Z,1003.07
2017-07-25T01:55:12.794Z,1003.09
2017-07-25T01:55:22.789Z,1003.11
2017-07-25T01:55:32.783Z,1003.08
2017-07-25T01:55:42.782Z,1003.04
2017-07-25T01:55:52.774Z,1003.09
2017-07-25T01:56:02.434Z,1003.11
2017-07-25T01:56:12.766Z,1003.06
2017-07-25T01:56:22.425Z,1003.1
2017-07-25T01:56:32.751Z,1003.05
2017-07-25T01:56:42.743Z,1003.07
2017-07-25T01:56:52.740Z,1003.08
2017-07-25T01:57:02.739Z,1003.08
2017-07-25T01:57:12.731Z,1003.1
2017-07-25T01:57:22.724Z,1003.12
2017-07-25T01:57:32.718Z,1003.1
2017-07-25T01:57:42.713Z,1003.09
2017-07-25T01:57:52.710Z,1003.08
2017-07-25T01:58:02.705Z,1003.15
2017-07-25T01:58:12.699Z,1003.09
2017-07-25T01:58:22.694Z,1003.06
2017-07-25T01:58:32.691Z,1003.07
2017-07-25T01:58:42.684Z,1003.11
2017-07-25T01:58:52.680Z,1003.12
2017-07-25T01:59:02.338Z,1003.06
2017-07-25T01:59:12.667Z,1003.14
2017-07-25T01:59:22.662Z,1003.11
2017-07-25T01:59:32.661Z,1003.09
2017-07-25T01:59:42.318Z,1003.15
2017-07-25T01:59:51.977Z,1003.1
2017-07-25T02:00:02.642Z,1003.12
2017-07-25T02:00:12.301Z,1003.02
2017-07-25T02:00:22.638Z,1003.08
2017-07-25T02:00:32.629Z,1003.03
2017-07-25T02:00:42.288Z,1003.08
2017-07-25T02:00:52.616Z,1003.09
2017-07-25T02:01:02.612Z,1003.08
2017-07-25T02:01:12.612Z,1003.1